Time;durP1;ratioP1;P1;durP2;ratioP2;P2;SDS_P1;SDS_P2;PMS_P1;PMS_P2;Temp;Humidity;BMP_temperature;BMP_pressure;BME280_temperature;BME280_humidity;BME280_pressure;Samples;Min_cycle;Max_cycle;Signal;HPM_P1;HPM_P2
2021/08/12 00:02:24;;;;;;;3.17;2.90;;;;;;;24.71;47.35;98746.38;4995946;28;20218;-52
2021/08/12 00:04:52;;;;;;;3.27;2.97;;;;;;;24.69;48.06;98745.72;4995879;28;20661;-54
2021/08/12 00:07:20;;;;;;;3.17;2.97;;;;;;;24.72;47.52;98748.81;5013627;28;20191;-52
2021/08/12 00:09:47;;;;;;;2.70;2.50;;;;;;;24.70;47.69;98750.06;5013517;28;20190;-53
2021/08/12 00:12:14;;;;;;;3.60;2.73;;;;;;;24.71;47.73;98751.69;5013304;28;20214;-53
2021/08/12 00:14:40;;;;;;;3.47;3.17;;;;;;;24.65;47.87;98748.78;5013481;28;20538;-54
2021/08/12 00:17:07;;;;;;;2.97;2.77;;;;;;;24.65;47.64;98751.44;5013574;28;20615;-54
2021/08/12 00:19:33;;;;;;;3.30;3.00;;;;;;;24.75;47.71;98752.97;4995955;28;20210;-53
2021/08/12 00:22:00;;;;;;;3.00;2.80;;;;;;;24.71;47.59;98747.19;5013537;28;20273;-55
2021/08/12 00:24:26;;;;;;;3.23;3.03;;;;;;;24.72;47.59;98742.69;5013580;28;20552;-55
2021/08/12 00:26:53;;;;;;;3.17;2.97;;;;;;;24.73;47.55;98744.31;5013275;28;20249;-55
2021/08/12 00:29:19;;;;;;;2.97;2.73;;;;;;;24.72;47.72;98740.00;5013197;28;20257;-55
2021/08/12 00:31:47;;;;;;;3.27;2.97;;;;;;;24.73;47.52;98744.31;5013148;28;20667;-54
2021/08/12 00:34:13;;;;;;;3.37;3.00;;;;;;;24.72;47.69;98738.16;5013184;28;20210;-54
2021/08/12 00:36:40;;;;;;;3.10;2.90;;;;;;;24.71;47.45;98741.84;4995387;28;20199;-54
2021/08/12 00:39:08;;;;;;;3.13;2.87;;;;;;;24.69;47.75;98737.69;4995672;28;20632;-54
2021/08/12 00:41:35;;;;;;;3.20;2.90;;;;;;;24.69;47.56;98735.03;4995302;28;20289;-55
2021/08/12 00:44:06;;;;;;;3.10;2.80;;;;;;;24.67;47.63;98746.72;4995607;28;20201;-55
2021/08/12 00:46:34;;;;;;;3.03;2.73;;;;;;;24.66;47.78;98739.75;4995369;28;20745;-55
2021/08/12 00:49:02;;;;;;;2.87;2.67;;;;;;;24.64;47.30;98741.78;4995231;28;20226;-55
2021/08/12 00:51:29;;;;;;;4.00;2.50;;;;;;;24.63;47.93;98740.13;4995253;28;20620;-54
2021/08/12 00:53:57;;;;;;;2.83;2.63;;;;;;;24.65;47.55;98743.44;4995203;28;20211;-54
2021/08/12 00:56:26;;;;;;;3.50;3.20;;;;;;;24.71;47.79;98751.69;4995146;28;20199;-53
2021/08/12 00:58:53;;;;;;;3.00;2.80;;;;;;;24.70;47.51;98734.84;4995095;28;20211;-53
2021/08/12 01:01:19;;;;;;;2.93;2.73;;;;;;;24.75;47.33;98744.94;4995277;28;20205;-52
2021/08/12 01:03:46;;;;;;;2.70;2.50;;;;;;;24.76;47.49;98744.75;4995124;28;20250;-55
2021/08/12 01:06:20;;;;;;;2.70;2.50;;;;;;;24.74;47.34;98737.97;4995140;28;20285;-55
2021/08/12 01:09:07;;;;;;;3.03;2.83;;;;;;;24.66;47.48;98742.41;4995239;28;20184;-53
2021/08/12 01:11:57;;;;;;;3.77;2.70;;;;;;;24.71;47.46;98746.38;4994904;28;20741;-51
2021/08/12 01:14:37;;;;;;;3.33;3.00;;;;;;;24.71;47.41;98741.84;4995394;28;20209;-53
2021/08/12 01:17:07;;;;;;;3.70;3.23;;;;;;;24.70;47.50;98742.06;4994257;28;20268;-53
2021/08/12 01:20:01;;;;;;;3.30;3.00;;;;;;;24.74;47.40;98738.78;4994971;28;20305;-52
2021/08/12 01:22:30;;;;;;;2.60;2.40;;;;;;;24.75;47.25;98744.94;4995020;28;20665;-52
2021/08/12 01:25:02;;;;;;;2.90;2.70;;;;;;;24.72;47.20;98738.16;4994887;28;20205;-51
2021/08/12 01:27:31;;;;;;;2.70;2.50;;;;;;;24.70;47.35;98740.19;4994882;28;20194;-55
2021/08/12 01:30:13;;;;;;;3.20;2.90;;;;;;;24.74;47.57;98735.28;4994894;28;20226;-54
2021/08/12 01:32:52;;;;;;;2.80;2.60;;;;;;;24.68;47.35;98742.22;5012670;28;20747;-54
2021/08/12 01:35:21;;;;;;;3.13;2.93;;;;;;;24.65;47.63;98732.75;5012373;28;20198;-55
2021/08/12 01:38:01;;;;;;;3.00;2.80;;;;;;;24.66;47.50;98739.75;4994869;28;20204;-53
2021/08/12 01:40:31;;;;;;;3.10;2.90;;;;;;;24.68;47.44;98742.22;4994719;28;20235;-52
2021/08/12 01:43:02;;;;;;;3.10;2.80;;;;;;;24.71;46.98;98741.03;5015550;28;20237;-52
2021/08/12 01:45:29;;;;;;;3.00;2.80;;;;;;;24.80;47.18;98734.53;4998889;28;20294;-55
2021/08/12 01:47:59;;;;;;;3.13;2.90;;;;;;;24.75;47.33;98735.09;4998490;28;20198;-53
2021/08/12 01:50:27;;;;;;;3.37;2.97;;;;;;;24.69;47.28;98743.88;4998421;28;20257;-53
2021/08/12 01:52:56;;;;;;;3.37;3.07;;;;;;;24.62;47.38;98725.16;5016219;28;20206;-55
2021/08/12 01:55:29;;;;;;;3.27;3.07;;;;;;;24.61;47.64;98725.38;4998402;28;20241;-54
2021/08/12 01:57:58;;;;;;;3.07;2.80;;;;;;;24.60;47.61;98724.53;4998380;28;20197;-54
2021/08/12 02:00:28;;;;;;;3.67;2.90;;;;;;;24.59;47.34;98722.88;4998165;28;20207;-52
2021/08/12 02:02:59;;;;;;;2.80;2.60;;;;;;;24.58;47.67;98723.91;4998346;28;20223;-52
2021/08/12 02:05:27;;;;;;;3.40;3.10;;;;;;;24.57;47.63;98724.91;4998219;28;20198;-53
2021/08/12 02:07:54;;;;;;;2.70;2.50;;;;;;;24.57;47.60;98724.91;5015806;28;20257;-51
2021/08/12 02:10:21;;;;;;;2.90;2.70;;;;;;;24.59;47.53;98724.72;4998092;28;20190;-53
2021/08/12 02:12:48;;;;;;;4.17;2.73;;;;;;;24.60;47.44;98729.03;4997969;28;20225;-51
2021/08/12 02:15:15;;;;;;;3.27;2.97;;;;;;;24.59;47.62;98722.03;4998057;28;20214;-52
2021/08/12 02:17:42;;;;;;;2.83;2.60;;;;;;;24.59;47.55;98724.72;5015815;28;20282;-52
2021/08/12 02:20:11;;;;;;;4.13;2.63;;;;;;;24.58;47.42;98726.56;4997812;28;20222;-52
2021/08/12 02:22:47;;;;;;;3.10;2.90;;;;;;;24.60;47.56;98719.19;5015640;28;20257;-53
2021/08/12 02:25:31;;;;;;;2.53;2.33;;;;;;;24.62;47.24;98717.16;4998670;28;20534;-54
2021/08/12 02:28:02;;;;;;;2.70;2.50;;;;;;;24.58;47.28;98710.56;4997894;28;20213;-51
2021/08/12 02:30:33;;;;;;;2.90;2.70;;;;;;;24.56;47.58;98712.59;4997863;28;20187;-54
2021/08/12 02:33:00;;;;;;;2.80;2.60;;;;;;;24.53;47.47;98718.34;4997593;28;20788;-54
2021/08/12 02:35:28;;;;;;;3.50;3.20;;;;;;;24.53;47.67;98715.66;4997893;28;20687;-52
2021/08/12 02:37:57;;;;;;;3.07;2.80;;;;;;;24.52;47.41;98712.16;4997625;28;20206;-55
2021/08/12 02:40:26;;;;;;;2.87;2.67;;;;;;;24.53;47.50;98711.13;5015197;28;20203;-55
2021/08/12 02:42:55;;;;;;;3.60;2.80;;;;;;;24.55;47.58;98710.97;5015096;28;20689;-54
2021/08/12 02:45:23;;;;;;;3.10;2.90;;;;;;;24.59;47.35;98711.38;5015239;28;20191;-55
2021/08/12 02:47:52;;;;;;;2.70;2.50;;;;;;;24.60;47.32;98705.84;4997760;28;20194;-55
2021/08/12 02:50:19;;;;;;;3.63;2.60;;;;;;;24.56;47.58;98709.94;5015102;28;20593;-56
2021/08/12 02:52:46;;;;;;;2.60;2.40;;;;;;;24.53;47.60;98705.81;4997454;28;20214;-56
2021/08/12 02:55:15;;;;;;;3.20;2.53;;;;;;;24.53;47.52;98707.66;5015258;28;20191;-56
2021/08/12 02:57:41;;;;;;;2.73;2.53;;;;;;;24.52;47.46;98708.66;5014899;28;20190;-54
2021/08/12 03:00:08;;;;;;;3.30;3.00;;;;;;;24.53;47.58;98713.00;4997253;28;20309;-55
2021/08/12 03:02:44;;;;;;;2.70;2.50;;;;;;;24.58;47.48;98705.22;4997644;28;20220;-56
2021/08/12 03:05:13;;;;;;;2.93;2.73;;;;;;;24.59;47.20;98704.19;4997250;28;20198;-56
2021/08/12 03:07:43;;;;;;;2.77;2.57;;;;;;;24.59;47.18;98695.38;4997219;28;20381;-53
2021/08/12 03:10:12;;;;;;;2.80;2.60;;;;;;;24.59;47.39;98696.19;4997203;28;20202;-56
2021/08/12 03:12:40;;;;;;;3.83;2.77;;;;;;;24.57;47.42;98692.91;5014527;28;20224;-56
2021/08/12 03:15:11;;;;;;;2.73;2.50;;;;;;;24.55;47.59;98699.44;4996952;28;20249;-55
2021/08/12 03:17:39;;;;;;;2.70;2.50;;;;;;;24.57;47.41;98698.25;4996959;28;20303;-54
2021/08/12 03:20:09;;;;;;;2.90;2.70;;;;;;;24.58;47.56;98699.88;5014376;28;20210;-54
2021/08/12 03:22:36;;;;;;;2.87;2.67;;;;;;;24.60;47.32;98697.84;4996812;28;20218;-53
2021/08/12 03:25:03;;;;;;;2.93;2.73;;;;;;;24.64;47.25;98704.44;4996801;28;20202;-55
2021/08/12 03:27:30;;;;;;;5.27;2.63;;;;;;;24.69;47.15;98711.03;4996752;28;20199;-55
2021/08/12 03:29:56;;;;;;;3.43;2.93;;;;;;;24.62;47.22;98706.47;4996677;28;20187;-55
2021/08/12 03:32:23;;;;;;;5.37;2.73;;;;;;;24.65;47.13;98713.28;4996554;28;20229;-56
2021/08/12 03:34:52;;;;;;;2.93;2.63;;;;;;;24.64;47.15;98707.09;4996474;28;20673;-53
2021/08/12 03:37:18;;;;;;;3.20;2.63;;;;;;;24.63;47.30;98708.13;5014508;28;20183;-55
2021/08/12 03:39:45;;;;;;;2.80;2.43;;;;;;;24.60;47.26;98707.69;5014100;28;20206;-55
2021/08/12 03:42:11;;;;;;;3.20;2.50;;;;;;;24.59;47.40;98706.88;4996409;28;20563;-54
2021/08/12 03:44:38;;;;;;;3.20;2.90;;;;;;;24.63;47.16;98713.47;4996918;28;20205;-55
2021/08/12 03:47:06;;;;;;;3.70;3.10;;;;;;;24.58;47.34;98715.91;4996364;28;20206;-55
2021/08/12 03:49:34;;;;;;;2.90;2.70;;;;;;;24.54;47.38;98711.97;4996319;28;20201;-54
2021/08/12 03:52:01;;;;;;;3.57;2.80;;;;;;;24.53;47.61;98711.13;4996225;28;20217;-56
2021/08/12 03:54:31;;;;;;;3.30;3.00;;;;;;;24.58;47.52;98718.56;4996345;28;20237;-56
2021/08/12 03:56:58;;;;;;;2.87;2.67;;;;;;;24.60;47.55;98705.84;4996177;28;20201;-54
2021/08/12 03:59:25;;;;;;;3.20;2.50;;;;;;;24.62;47.15;98711.81;5013982;28;20190;-52
2021/08/12 04:01:51;;;;;;;3.10;2.80;;;;;;;24.59;47.49;98709.53;5013677;28;20195;-54
2021/08/12 04:04:18;;;;;;;2.80;2.60;;;;;;;24.58;47.31;98709.72;4995549;28;20205;-54
2021/08/12 04:06:45;;;;;;;2.90;2.70;;;;;;;24.57;47.72;98708.91;4996068;28;20209;-54
2021/08/12 04:09:12;;;;;;;3.30;2.87;;;;;;;24.59;47.50;98711.38;4996020;28;20195;-53
2021/08/12 04:11:39;;;;;;;2.90;2.70;;;;;;;24.60;47.55;98711.19;5013584;28;20186;-54
2021/08/12 04:14:06;;;;;;;2.90;2.70;;;;;;;24.56;47.46;98712.59;4995921;28;20199;-55
2021/08/12 04:16:34;;;;;;;2.93;2.63;;;;;;;24.55;47.47;98710.97;4995867;28;20549;-55
2021/08/12 04:19:04;;;;;;;3.73;2.90;;;;;;;24.52;47.51;98716.66;4996567;28;20195;-54
2021/08/12 04:21:31;;;;;;;2.93;2.70;;;;;;;24.51;47.46;98721.19;4995785;28;20219;-55
2021/08/12 04:23:59;;;;;;;2.70;2.50;;;;;;;24.51;47.61;98731.00;4995960;28;20202;-55
2021/08/12 04:26:29;;;;;;;2.80;2.60;;;;;;;24.52;47.34;98738.00;5013357;28;20187;-54
2021/08/12 04:28:56;;;;;;;3.30;2.60;;;;;;;24.52;47.38;98730.84;5013627;28;20673;-55
2021/08/12 04:31:23;;;;;;;3.30;3.00;;;;;;;24.53;47.47;98729.81;4995586;28;20195;-54
2021/08/12 04:33:50;;;;;;;3.40;3.10;;;;;;;24.49;47.41;98733.06;4995403;28;20231;-55
2021/08/12 04:36:17;;;;;;;4.80;2.97;;;;;;;24.46;47.67;98728.94;5013248;28;20244;-55
2021/08/12 04:38:45;;;;;;;2.80;2.60;;;;;;;24.45;47.71;98726.47;4995662;28;20191;-54
2021/08/12 04:41:11;;;;;;;3.17;2.87;;;;;;;24.44;47.63;98724.81;4995343;28;20409;-54
2021/08/12 04:43:38;;;;;;;3.17;2.70;;;;;;;24.43;47.73;98729.31;4995436;28;20211;-53
2021/08/12 04:46:04;;;;;;;3.47;2.80;;;;;;;24.41;47.51;98730.53;5013106;28;20240;-53
2021/08/12 04:48:31;;;;;;;3.23;2.73;;;;;;;24.42;47.55;98729.53;4995767;28;20202;-55
2021/08/12 04:50:58;;;;;;;2.67;2.47;;;;;;;24.37;47.56;98720.28;4995777;28;20278;-52
2021/08/12 04:53:25;;;;;;;3.27;2.97;;;;;;;24.36;47.68;98726.59;4995448;28;20301;-54
2021/08/12 04:55:51;;;;;;;3.00;2.80;;;;;;;24.37;47.66;98722.94;4996140;28;20195;-55
2021/08/12 04:58:18;;;;;;;3.13;2.83;;;;;;;24.34;47.75;98722.50;4995382;28;20191;-55
2021/08/12 05:00:44;;;;;;;3.13;2.93;;;;;;;24.36;47.62;98723.91;4995365;28;20218;-55
2021/08/12 05:03:11;;;;;;;4.63;2.87;;;;;;;24.34;47.71;98725.16;4995211;28;20230;-56
2021/08/12 05:05:38;;;;;;;3.53;2.70;;;;;;;24.38;47.72;98724.59;4995190;28;20191;-56
2021/08/12 05:08:05;;;;;;;3.40;3.10;;;;;;;24.46;47.68;98723.63;4995276;28;20199;-57
2021/08/12 05:10:31;;;;;;;2.83;2.63;;;;;;;24.50;47.55;98721.38;4995058;28;20218;-58
2021/08/12 05:12:59;;;;;;;3.40;2.80;;;;;;;24.58;47.34;98731.91;4995097;28;20305;-56
2021/08/12 05:15:27;;;;;;;3.10;2.90;;;;;;;24.67;47.30;98719.25;4995150;28;20257;-56
2021/08/12 05:17:54;;;;;;;3.40;2.80;;;;;;;24.78;46.74;98728.56;4998298;28;20201;-56
2021/08/12 05:20:21;;;;;;;3.50;3.20;;;;;;;24.86;46.51;98733.78;4999048;28;20237;-56
2021/08/12 05:22:48;;;;;;;2.80;2.60;;;;;;;24.91;46.62;98736.66;4999165;28;20207;-58
2021/08/12 05:25:15;;;;;;;2.77;2.57;;;;;;;24.95;46.35;98731.75;4999213;28;20194;-56
2021/08/12 05:27:42;;;;;;;2.83;2.60;;;;;;;24.94;46.43;98738.13;5016924;28;20220;-56
2021/08/12 05:30:09;;;;;;;3.10;2.80;;;;;;;24.89;46.75;98744.03;4998961;28;20557;-55
2021/08/12 05:32:36;;;;;;;2.93;2.70;;;;;;;24.86;46.82;98749.78;4998956;28;20214;-56
2021/08/12 05:35:05;;;;;;;3.40;3.10;;;;;;;24.93;46.80;98749.81;4998820;28;20294;-55
2021/08/12 05:37:31;;;;;;;3.30;3.00;;;;;;;24.87;46.97;98750.59;4998872;28;20381;-55
2021/08/12 05:39:58;;;;;;;3.03;2.73;;;;;;;24.89;47.11;98745.88;4998672;28;20211;-55
2021/08/12 05:42:26;;;;;;;2.70;2.50;;;;;;;24.91;46.93;98747.34;4998746;28;20215;-55
2021/08/12 05:44:53;;;;;;;3.27;2.87;;;;;;;24.91;46.85;98739.34;4999246;28;20198;-55
2021/08/12 05:47:19;;;;;;;4.70;4.10;;;;;;;24.77;46.75;98745.59;4998886;28;20536;-54
2021/08/12 05:49:46;;;;;;;5.30;3.40;;;;;;;24.70;46.94;98745.53;4999226;28;20191;-52
2021/08/12 05:52:13;;;;;;;2.87;2.67;;;;;;;24.63;46.98;98742.81;4998506;28;20219;-53
2021/08/12 05:54:39;;;;;;;3.30;3.10;;;;;;;24.67;47.35;98744.06;4998641;28;20201;-54
2021/08/12 05:57:06;;;;;;;3.10;2.90;;;;;;;24.76;47.20;98734.09;4998493;28;20202;-54
2021/08/12 05:59:32;;;;;;;3.13;2.90;;;;;;;24.82;47.14;98732.50;4998450;28;20285;-54
2021/08/12 06:01:59;;;;;;;3.50;3.20;;;;;;;24.85;46.94;98733.94;4998424;28;20219;-52
2021/08/12 06:04:32;;;;;;;3.40;3.10;;;;;;;24.80;46.98;98743.38;4998502;28;20677;-54
2021/08/12 06:07:02;;;;;;;3.00;2.80;;;;;;;24.79;46.85;98733.72;4998365;28;20202;-54
2021/08/12 06:09:28;;;;;;;3.30;3.00;;;;;;;24.78;46.95;98733.91;4998314;28;20195;-54
2021/08/12 06:11:55;;;;;;;3.53;2.80;;;;;;;24.82;47.05;98729.00;4998830;28;20576;-52
2021/08/12 06:14:22;;;;;;;4.30;3.20;;;;;;;24.78;47.26;98731.25;4998241;28;20205;-52
2021/08/12 06:16:49;;;;;;;3.17;2.97;;;;;;;24.82;47.05;98743.16;4999028;28;20245;-52
2021/08/12 06:19:16;;;;;;;3.43;2.73;;;;;;;24.88;46.75;98744.22;4998103;28;20665;-51
2021/08/12 06:21:42;;;;;;;3.30;3.00;;;;;;;24.84;47.06;98734.97;4997875;28;20401;-54
2021/08/12 06:24:14;;;;;;;3.03;2.80;;;;;;;24.85;46.96;98741.97;4997987;28;20214;-53
2021/08/12 06:26:44;;;;;;;3.20;2.90;;;;;;;24.84;47.06;98735.78;4997876;28;20290;-53
2021/08/12 06:29:12;;;;;;;2.97;2.70;;;;;;;24.85;46.93;98739.28;4997869;28;20198;-54
2021/08/12 06:31:39;;;;;;;3.70;3.40;;;;;;;24.78;47.22;98745.41;4997903;28;20191;-54
2021/08/12 06:34:06;;;;;;;3.30;2.90;;;;;;;24.70;47.06;98734.03;4997836;28;20237;-53
2021/08/12 06:36:33;;;;;;;3.40;3.10;;;;;;;24.69;47.11;98743.88;4997695;28;20673;-54
2021/08/12 06:39:00;;;;;;;3.83;3.33;;;;;;;24.71;47.22;98738.34;4997030;28;20637;-56
2021/08/12 06:41:29;;;;;;;3.40;3.10;;;;;;;24.73;47.39;98739.00;4997614;28;20211;-53
2021/08/12 06:44:01;;;;;;;3.17;2.93;;;;;;;24.71;47.38;98736.50;4997652;28;20194;-54
2021/08/12 06:46:27;;;;;;;4.87;3.40;;;;;;;24.72;47.20;98734.66;4997597;28;20286;-52
2021/08/12 06:48:54;;;;;;;3.30;3.00;;;;;;;24.74;46.98;98744.09;4997861;28;20199;-54
2021/08/12 06:51:35;;;;;;;3.43;3.13;;;;;;;24.75;47.26;98735.09;4997592;28;20190;-53
2021/08/12 06:54:02;;;;;;;3.60;3.30;;;;;;;24.75;47.18;98737.75;4997378;28;20213;-53
2021/08/12 06:56:29;;;;;;;3.13;2.80;;;;;;;24.80;47.07;98735.38;5015224;28;20195;-51
2021/08/12 06:58:55;;;;;;;3.63;3.17;;;;;;;24.81;47.04;98736.19;4981305;28;20194;-54
2021/08/12 07:01:22;;;;;;;3.37;3.07;;;;;;;24.82;47.16;98734.34;5014963;28;20214;-54
2021/08/12 07:03:48;;;;;;;5.17;3.40;;;;;;;24.82;47.27;98740.50;4981244;28;20636;-54
2021/08/12 07:06:16;;;;;;;3.53;3.23;;;;;;;24.79;47.23;98735.56;4997056;28;20197;-53
2021/08/12 07:08:44;;;;;;;4.90;3.60;;;;;;;24.78;47.11;98737.41;4997258;28;20194;-52
2021/08/12 07:11:10;;;;;;;3.23;2.93;;;;;;;24.80;47.00;98735.38;5015016;28;20189;-52
2021/08/12 07:13:37;;;;;;;3.97;3.27;;;;;;;24.79;47.04;98738.22;5014534;28;20214;-54
2021/08/12 07:16:04;;;;;;;3.93;3.47;;;;;;;24.76;47.20;98735.94;4996892;28;20202;-51
2021/08/12 07:18:33;;;;;;;4.10;3.30;;;;;;;24.75;47.18;98734.28;4980966;28;20571;-52
2021/08/12 07:21:00;;;;;;;3.67;3.37;;;;;;;24.78;47.21;98736.56;4996943;28;20719;-55
2021/08/12 07:23:30;;;;;;;3.80;3.37;;;;;;;24.76;47.22;98743.97;4996911;28;20581;-51
2021/08/12 07:25:57;;;;;;;3.47;3.17;;;;;;;24.78;47.25;98739.25;4996995;28;20210;-54
2021/08/12 07:28:24;;;;;;;3.63;3.33;;;;;;;24.83;47.05;98742.16;4996949;28;20194;-53
2021/08/12 07:30:51;;;;;;;3.40;3.10;;;;;;;24.83;47.20;98744.00;4980844;28;20195;-53
2021/08/12 07:33:18;;;;;;;3.60;3.30;;;;;;;24.77;47.13;98745.59;4996692;28;20230;-51
2021/08/12 07:35:44;;;;;;;3.87;3.33;;;;;;;24.79;47.16;98748.91;5014395;28;20179;-54
2021/08/12 07:38:11;;;;;;;3.80;3.37;;;;;;;24.83;47.30;98744.00;4996826;28;20281;-50
2021/08/12 07:40:37;;;;;;;3.93;3.17;;;;;;;24.87;47.03;98740.75;4996009;28;20222;-52
2021/08/12 07:43:04;;;;;;;3.70;3.27;;;;;;;24.91;47.10;98736.66;4996629;28;20652;-51
2021/08/12 07:45:31;;;;;;;6.97;3.80;;;;;;;24.93;47.17;98733.81;4996722;28;20205;-50
2021/08/12 07:47:57;;;;;;;5.10;3.67;;;;;;;24.93;46.91;98739.97;4996608;28;20198;-52
2021/08/12 07:50:24;;;;;;;5.03;3.70;;;;;;;24.95;46.77;98742.44;4997305;28;20638;-48
2021/08/12 07:52:54;;;;;;;3.40;3.10;;;;;;;24.98;46.91;98735.88;4996598;28;20209;-53
2021/08/12 07:55:22;;;;;;;4.40;3.37;;;;;;;24.97;47.15;98735.06;5014276;28;20290;-53
2021/08/12 07:57:48;;;;;;;3.50;3.20;;;;;;;24.94;47.23;98732.78;5013822;28;20241;-56
2021/08/12 08:00:15;;;;;;;3.67;3.30;;;;;;;24.92;47.39;98732.97;5013029;28;20598;-54
2021/08/12 08:02:46;;;;;;;3.97;3.47;;;;;;;24.93;47.21;98737.28;5014261;28;20210;-52
2021/08/12 08:05:20;;;;;;;6.13;3.50;;;;;;;24.92;47.50;98732.13;4996748;28;20190;-53
2021/08/12 08:07:49;;;;;;;5.13;3.60;;;;;;;24.93;47.29;98736.47;4997047;28;20183;-56
2021/08/12 08:10:17;;;;;;;5.90;3.40;;;;;;;24.92;47.21;98735.63;4996231;28;20680;-56
2021/08/12 08:12:44;;;;;;;3.80;3.50;;;;;;;24.92;47.40;98730.31;4995589;28;20303;-55
2021/08/12 08:15:12;;;;;;;4.20;3.27;;;;;;;24.95;47.25;98735.25;4996152;28;20224;-56
2021/08/12 08:17:57;;;;;;;5.80;3.90;;;;;;;24.99;46.95;98724.16;4999033;28;20577;-51
2021/08/12 08:20:24;;;;;;;4.87;3.60;;;;;;;25.04;46.89;98730.56;4996130;28;20201;-57
2021/08/12 08:22:51;;;;;;;4.13;3.30;;;;;;;25.08;47.07;98731.00;4995854;28;20202;-57
2021/08/12 08:25:18;;;;;;;4.07;3.63;;;;;;;25.06;47.08;98728.53;4995660;28;20241;-54
2021/08/12 08:27:44;;;;;;;4.03;3.63;;;;;;;25.17;46.98;98737.00;4995918;28;20195;-57
2021/08/12 08:30:25;;;;;;;3.63;3.33;;;;;;;25.24;46.79;98740.50;4995202;28;20190;-56
2021/08/12 08:41:22;;;;;;;4.30;3.33;;;;;;;25.30;46.46;98733.56;5011233;28;20684;-56
2021/08/12 08:43:52;;;;;;;3.57;3.13;;;;;;;25.30;46.72;98738.91;5012316;28;20759;-56
2021/08/12 08:46:20;;;;;;;4.33;3.40;;;;;;;25.29;46.92;98738.09;4993786;28;20669;-56
2021/08/12 08:48:47;;;;;;;4.03;3.20;;;;;;;25.34;47.02;98726.81;4995352;28;20203;-57
2021/08/12 08:51:15;;;;;;;6.97;3.40;;;;;;;25.36;46.72;98730.91;4995212;28;20198;-56
2021/08/12 08:53:43;;;;;;;5.03;3.93;;;;;;;25.35;47.26;98725.78;4995479;28;20226;-57
2021/08/12 08:56:11;;;;;;;6.73;4.33;;;;;;;25.37;46.94;98737.91;5006744;28;20669;-56
2021/08/12 08:58:38;;;;;;;5.70;4.30;;;;;;;25.40;47.15;98734.03;4998675;28;20195;-58
2021/08/12 09:01:05;;;;;;;4.40;4.00;;;;;;;25.40;47.43;98736.69;5013135;28;20207;-60
2021/08/12 09:03:32;;;;;;;6.03;4.23;;;;;;;25.47;47.36;98728.72;5012536;28;20301;-57
2021/08/12 09:05:59;;;;;;;4.80;4.30;;;;;;;25.60;47.13;98727.94;5001265;28;20214;-58
2021/08/12 09:08:29;;;;;;;8.97;4.43;;;;;;;25.61;47.06;98725.09;4994981;28;20226;-58
2021/08/12 09:10:56;;;;;;;9.70;4.40;;;;;;;25.58;47.02;98722.81;5010737;28;20199;-59
2021/08/12 09:13:22;;;;;;;7.43;4.43;;;;;;;25.62;46.79;98726.72;5010637;28;20288;-58
2021/08/12 09:15:49;;;;;;;7.20;4.77;;;;;;;25.64;47.01;98723.84;5010728;28;20249;-59
2021/08/12 09:18:28;;;;;;;5.20;4.23;;;;;;;25.67;46.71;98723.47;5010611;28;20221;-59
2021/08/12 09:21:16;;;;;;;4.77;4.30;;;;;;;25.65;46.98;98720.97;5010526;28;20210;-58
2021/08/12 09:23:42;;;;;;;6.70;4.47;;;;;;;25.68;46.92;98710.91;5010542;28;20222;-58
2021/08/12 09:26:19;;;;;;;4.23;3.93;;;;;;;25.68;46.70;98725.09;5012525;28;20195;-58
2021/08/12 09:28:46;;;;;;;4.93;4.43;;;;;;;25.71;46.92;98711.34;5012741;28;20241;-58
2021/08/12 09:31:13;;;;;;;5.87;4.37;;;;;;;25.76;46.91;98714.22;5012706;28;20252;-58
2021/08/12 09:33:52;;;;;;;5.57;4.37;;;;;;;25.75;46.65;98717.91;4994900;28;20214;-58
2021/08/12 09:36:25;;;;;;;4.33;3.93;;;;;;;25.77;46.60;98718.53;5012927;28;20553;-58
2021/08/12 09:39:20;;;;;;;4.80;4.17;;;;;;;25.72;46.91;98718.31;5012889;28;20179;-58
2021/08/12 09:41:50;;;;;;;4.77;3.93;;;;;;;25.65;46.89;98709.44;4995168;28;20238;-58
2021/08/12 09:44:36;;;;;;;4.73;4.33;;;;;;;25.64;46.86;98718.50;4994963;28;20199;-56
2021/08/12 09:47:07;;;;;;;5.67;4.37;;;;;;;25.67;47.02;98711.94;5012502;28;20237;-58
2021/08/12 09:49:43;;;;;;;4.53;4.13;;;;;;;25.73;46.58;98711.94;4995061;28;20249;-58
2021/08/12 09:52:29;;;;;;;5.13;4.40;;;;;;;25.69;46.81;98716.06;5012935;28;20194;-58
2021/08/12 09:55:18;;;;;;;4.93;4.53;;;;;;;25.68;46.79;98719.75;5012997;28;20182;-58
2021/08/12 09:57:53;;;;;;;4.60;4.20;;;;;;;25.70;46.94;98724.88;5012488;28;20179;-57
2021/08/12 10:00:44;;;;;;;4.80;4.30;;;;;;;25.73;46.76;98721.81;5012729;28;20185;-57
2021/08/12 10:03:31;;;;;;;5.13;4.63;;;;;;;25.78;47.04;98720.19;4996619;28;20301;-57
2021/08/12 10:06:00;;;;;;;5.10;4.70;;;;;;;25.77;47.04;98718.53;4998354;28;20183;-57
2021/08/12 10:08:39;;;;;;;5.57;5.00;;;;;;;25.86;46.98;98715.69;5016438;28;20266;-57
2021/08/12 10:11:16;;;;;;;5.60;5.03;;;;;;;25.87;46.86;98723.47;5016265;28;20535;-57
2021/08/12 10:13:43;;;;;;;5.00;4.50;;;;;;;25.96;46.85;98721.44;5015894;28;20206;-57
2021/08/12 10:16:10;;;;;;;5.50;5.00;;;;;;;26.06;47.00;98715.72;5014023;28;20252;-57
2021/08/12 10:18:40;;;;;;;7.60;5.37;;;;;;;26.05;46.89;98719.38;5016011;28;20681;-57
2021/08/12 10:21:07;;;;;;;5.70;5.13;;;;;;;26.18;46.39;98715.97;5015637;28;20685;-57
2021/08/12 10:23:36;;;;;;;6.50;5.37;;;;;;;26.20;46.43;98719.25;4998206;28;20210;-57
2021/08/12 10:26:03;;;;;;;7.00;5.50;;;;;;;26.28;46.26;98710.19;5015578;28;20203;-57
2021/08/12 10:28:34;;;;;;;5.47;4.93;;;;;;;26.28;46.18;98712.88;5015651;28;20325;-58
2021/08/12 10:31:03;;;;;;;5.83;5.23;;;;;;;26.24;46.41;98701.75;5015744;28;20209;-56
2021/08/12 10:33:30;;;;;;;5.87;5.23;;;;;;;26.21;46.40;98703.00;4998151;28;20715;-57
2021/08/12 10:35:57;;;;;;;5.80;5.20;;;;;;;26.22;46.43;98703.81;5015299;28;20187;-57
2021/08/12 10:38:24;;;;;;;6.27;5.67;;;;;;;26.24;46.82;98699.06;5015334;28;20260;-60
2021/08/12 10:40:52;;;;;;;5.50;5.00;;;;;;;26.31;46.60;98691.88;4997518;28;20198;-56
2021/08/12 10:43:22;;;;;;;7.83;6.17;;;;;;;26.34;46.83;98696.81;5015175;28;20732;-58
2021/08/12 10:46:00;;;;;;;7.60;6.23;;;;;;;26.37;46.74;98684.84;5015257;28;20191;-57
2021/08/12 10:48:29;;;;;;;6.43;5.70;;;;;;;26.43;46.48;98686.72;5015326;28;20210;-57
2021/08/12 10:51:06;;;;;;;8.30;6.97;;;;;;;26.44;46.62;98692.88;5015689;28;20651;-57
2021/08/12 10:53:34;;;;;;;7.73;6.20;;;;;;;26.44;46.49;98696.38;5015050;28;20225;-57
2021/08/12 10:56:20;;;;;;;7.87;6.40;;;;;;;26.45;46.61;98689.16;5015075;28;20190;-57
2021/08/12 10:58:49;;;;;;;6.83;5.87;;;;;;;26.47;46.93;98679.09;4997484;28;20194;-57
2021/08/12 11:01:31;;;;;;;6.23;5.50;;;;;;;26.45;46.95;98681.97;4997456;28;20579;-57
2021/08/12 11:04:01;;;;;;;6.43;5.50;;;;;;;26.48;46.88;98680.75;5015555;28;20210;-57
2021/08/12 11:06:46;;;;;;;7.20;5.83;;;;;;;26.48;46.58;98681.56;4997447;28;20724;-57
2021/08/12 11:09:14;;;;;;;5.77;5.30;;;;;;;26.50;46.89;98690.19;5015281;28;20253;-57
2021/08/12 11:11:40;;;;;;;6.30;5.70;;;;;;;26.51;46.83;98680.34;4997244;28;20559;-56
2021/08/12 11:14:13;;;;;;;6.43;5.40;;;;;;;26.47;46.69;98687.13;5014813;28;20245;-57
2021/08/12 11:16:40;;;;;;;7.73;5.93;;;;;;;26.47;46.77;98682.59;5014973;28;20183;-57
2021/08/12 11:19:22;;;;;;;7.07;5.77;;;;;;;26.52;46.64;98689.16;5014806;28;20187;-57
2021/08/12 11:21:50;;;;;;;6.10;5.50;;;;;;;26.50;46.55;98679.50;4997019;28;20202;-57
2021/08/12 11:24:22;;;;;;;6.03;5.43;;;;;;;26.52;46.45;98681.13;5014605;28;20191;-57
2021/08/12 11:26:49;;;;;;;7.07;5.63;;;;;;;26.57;46.80;98684.03;5014589;28;20237;-57
2021/08/12 11:29:22;;;;;;;6.73;6.00;;;;;;;26.62;46.39;98685.06;5014682;28;20193;-57
2021/08/12 11:31:49;;;;;;;7.13;6.27;;;;;;;26.62;46.39;98685.06;4996814;28;20658;-57
2021/08/12 11:34:22;;;;;;;7.23;6.00;;;;;;;26.65;46.74;98691.81;5014331;28;20268;-57
2021/08/12 11:37:06;;;;;;;8.20;6.10;;;;;;;26.56;46.93;98680.53;5014526;28;20175;-57
2021/08/12 11:39:44;;;;;;;7.50;5.87;;;;;;;26.55;46.73;98686.91;5014544;28;20180;-57
2021/08/12 11:42:21;;;;;;;6.07;5.53;;;;;;;26.57;46.58;98692.06;5014136;28;20222;-56
2021/08/12 11:44:49;;;;;;;6.70;5.43;;;;;;;26.58;46.58;98686.47;5014370;28;20187;-56
2021/08/12 11:47:16;;;;;;;6.43;5.83;;;;;;;26.60;46.85;98688.97;5013978;28;20241;-56
2021/08/12 11:49:54;;;;;;;6.77;5.77;;;;;;;26.67;46.64;98687.09;5014137;28;20194;-57
2021/08/12 11:52:26;;;;;;;6.53;5.93;;;;;;;26.64;46.62;98685.66;5013824;28;20269;-57
2021/08/12 11:55:07;;;;;;;7.60;5.87;;;;;;;26.60;46.47;98687.09;4996856;28;20182;-56